sensor_id;sensor_type;location;lat;lon;timestamp;P1;durP1;ratioP1;P2;durP2;ratioP2
10244;SDS011;5167;52.164;10.530;2024-01-30T00:00:36;13.60;;;9.33;;
10244;SDS011;5167;52.164;10.530;2024-01-30T00:03:01;13.97;;;8.63;;
10244;SDS011;5167;52.164;10.530;2024-01-30T00:05:27;11.67;;;8.40;;
10244;SDS011;5167;52.164;10.530;2024-01-30T00:07:52;12.90;;;7.97;;
10244;SDS011;5167;52.164;10.530;2024-01-30T00:10:18;14.03;;;9.27;;
10244;SDS011;5167;52.164;10.530;2024-01-30T00:12:43;14.03;;;9.57;;
10244;SDS011;5167;52.164;10.530;2024-01-30T00:15:09;12.50;;;8.63;;
10244;SDS011;5167;52.164;10.530;2024-01-30T00:17:36;17.20;;;9.10;;
10244;SDS011;5167;52.164;10.530;2024-01-30T00:20:02;14.60;;;9.33;;
10244;SDS011;5167;52.164;10.530;2024-01-30T00:22:30;13.60;;;9.17;;
10244;SDS011;5167;52.164;10.530;2024-01-30T00:24:56;16.23;;;8.50;;
10244;SDS011;5167;52.164;10.530;2024-01-30T00:27:22;12.33;;;8.57;;
10244;SDS011;5167;52.164;10.530;2024-01-30T00:29:47;17.87;;;9.33;;
10244;SDS011;5167;52.164;10.530;2024-01-30T00:32:13;23.80;;;12.77;;
10244;SDS011;5167;52.164;10.530;2024-01-30T00:34:38;15.07;;;9.30;;
10244;SDS011;5167;52.164;10.530;2024-01-30T00:37:04;18.13;;;9.87;;
10244;SDS011;5167;52.164;10.530;2024-01-30T00:39:29;13.40;;;8.43;;
10244;SDS011;5167;52.164;10.530;2024-01-30T00:41:55;23.10;;;11.97;;
10244;SDS011;5167;52.164;10.530;2024-01-30T00:44:20;17.20;;;8.90;;
10244;SDS011;5167;52.164;10.530;2024-01-30T00:46:46;23.20;;;12.47;;
10244;SDS011;5167;52.164;10.530;2024-01-30T00:49:11;24.30;;;13.03;;
10244;SDS011;5167;52.164;10.530;2024-01-30T00:51:36;20.27;;;11.90;;
10244;SDS011;5167;52.164;10.530;2024-01-30T00:54:02;17.43;;;8.33;;
10244;SDS011;5167;52.164;10.530;2024-01-30T00:56:28;13.67;;;8.23;;
10244;SDS011;5167;52.164;10.530;2024-01-30T00:58:53;13.13;;;9.00;;
10244;SDS011;5167;52.164;10.530;2024-01-30T01:01:19;13.30;;;8.43;;
10244;SDS011;5167;52.164;10.530;2024-01-30T01:03:44;11.60;;;7.90;;
10244;SDS011;5167;52.164;10.530;2024-01-30T01:06:10;14.97;;;8.93;;
10244;SDS011;5167;52.164;10.530;2024-01-30T01:08:35;12.90;;;7.97;;
10244;SDS011;5167;52.164;10.530;2024-01-30T01:11:01;13.40;;;7.93;;
10244;SDS011;5167;52.164;10.530;2024-01-30T01:13:28;13.50;;;8.07;;
10244;SDS011;5167;52.164;10.530;2024-01-30T01:15:54;12.60;;;8.53;;
10244;SDS011;5167;52.164;10.530;2024-01-30T01:18:19;13.70;;;7.97;;
10244;SDS011;5167;52.164;10.530;2024-01-30T01:20:45;11.73;;;8.27;;
10244;SDS011;5167;52.164;10.530;2024-01-30T01:23:10;15.60;;;9.07;;
10244;SDS011;5167;52.164;10.530;2024-01-30T01:25:36;11.83;;;8.03;;
10244;SDS011;5167;52.164;10.530;2024-01-30T01:28:01;11.33;;;7.67;;
10244;SDS011;5167;52.164;10.530;2024-01-30T01:30:28;11.63;;;8.63;;
10244;SDS011;5167;52.164;10.530;2024-01-30T01:32:54;16.47;;;8.93;;
10244;SDS011;5167;52.164;10.530;2024-01-30T01:35:25;13.73;;;8.00;;
10244;SDS011;5167;52.164;10.530;2024-01-30T01:37:52;13.97;;;8.47;;
10244;SDS011;5167;52.164;10.530;2024-01-30T01:40:24;14.80;;;8.70;;
10244;SDS011;5167;52.164;10.530;2024-01-30T01:42:50;13.70;;;8.57;;
10244;SDS011;5167;52.164;10.530;2024-01-30T01:45:19;13.67;;;8.50;;
10244;SDS011;5167;52.164;10.530;2024-01-30T01:47:46;14.43;;;8.87;;
10244;SDS011;5167;52.164;10.530;2024-01-30T01:50:15;15.00;;;8.53;;
10244;SDS011;5167;52.164;10.530;2024-01-30T01:52:44;14.93;;;9.07;;
10244;SDS011;5167;52.164;10.530;2024-01-30T01:55:12;11.93;;;8.37;;
10244;SDS011;5167;52.164;10.530;2024-01-30T01:57:38;13.93;;;8.40;;
10244;SDS011;5167;52.164;10.530;2024-01-30T02:00:04;17.57;;;8.50;;
10244;SDS011;5167;52.164;10.530;2024-01-30T02:02:30;13.33;;;8.30;;
10244;SDS011;5167;52.164;10.530;2024-01-30T02:04:57;14.87;;;8.53;;
10244;SDS011;5167;52.164;10.530;2024-01-30T02:07:24;17.30;;;8.63;;
10244;SDS011;5167;52.164;10.530;2024-01-30T02:09:49;13.30;;;8.23;;
10244;SDS011;5167;52.164;10.530;2024-01-30T02:12:15;14.37;;;9.13;;
10244;SDS011;5167;52.164;10.530;2024-01-30T02:14:46;15.27;;;8.53;;
10244;SDS011;5167;52.164;10.530;2024-01-30T02:17:13;14.87;;;8.70;;
10244;SDS011;5167;52.164;10.530;2024-01-30T02:19:39;12.60;;;8.33;;
10244;SDS011;5167;52.164;10.530;2024-01-30T02:22:05;15.27;;;8.70;;
10244;SDS011;5167;52.164;10.530;2024-01-30T02:24:31;13.07;;;8.70;;
10244;SDS011;5167;52.164;10.530;2024-01-30T02:26:56;10.93;;;8.27;;
10244;SDS011;5167;52.164;10.530;2024-01-30T02:29:22;12.37;;;8.77;;
10244;SDS011;5167;52.164;10.530;2024-01-30T02:31:47;13.30;;;8.83;;
10244;SDS011;5167;52.164;10.530;2024-01-30T02:34:13;13.60;;;9.30;;
10244;SDS011;5167;52.164;10.530;2024-01-30T02:36:42;13.40;;;8.87;;
10244;SDS011;5167;52.164;10.530;2024-01-30T02:39:08;15.80;;;8.63;;
10244;SDS011;5167;52.164;10.530;2024-01-30T02:41:34;16.13;;;8.37;;
10244;SDS011;5167;52.164;10.530;2024-01-30T02:44:00;17.17;;;9.37;;
10244;SDS011;5167;52.164;10.530;2024-01-30T02:46:26;16.90;;;9.60;;
10244;SDS011;5167;52.164;10.530;2024-01-30T02:48:51;16.20;;;9.50;;
10244;SDS011;5167;52.164;10.530;2024-01-30T02:51:17;14.23;;;8.10;;
10244;SDS011;5167;52.164;10.530;2024-01-30T02:53:42;17.37;;;9.00;;
10244;SDS011;5167;52.164;10.530;2024-01-30T02:56:08;12.20;;;8.17;;
10244;SDS011;5167;52.164;10.530;2024-01-30T02:58:35;13.57;;;8.67;;
10244;SDS011;5167;52.164;10.530;2024-01-30T03:01:03;13.87;;;8.87;;
10244;SDS011;5167;52.164;10.530;2024-01-30T03:03:29;15.33;;;9.00;;
10244;SDS011;5167;52.164;10.530;2024-01-30T03:05:55;13.10;;;8.77;;
10244;SDS011;5167;52.164;10.530;2024-01-30T03:08:20;12.77;;;8.07;;
10244;SDS011;5167;52.164;10.530;2024-01-30T03:10:46;17.37;;;9.03;;
10244;SDS011;5167;52.164;10.530;2024-01-30T03:13:11;13.87;;;8.23;;
10244;SDS011;5167;52.164;10.530;2024-01-30T03:15:37;17.23;;;8.93;;
10244;SDS011;5167;52.164;10.530;2024-01-30T03:18:02;17.23;;;9.53;;
10244;SDS011;5167;52.164;10.530;2024-01-30T03:20:30;17.90;;;9.50;;
10244;SDS011;5167;52.164;10.530;2024-01-30T03:22:56;17.03;;;8.53;;
10244;SDS011;5167;52.164;10.530;2024-01-30T03:25:22;12.80;;;8.67;;
10244;SDS011;5167;52.164;10.530;2024-01-30T03:27:47;16.13;;;9.30;;
10244;SDS011;5167;52.164;10.530;2024-01-30T03:30:13;14.77;;;9.10;;
10244;SDS011;5167;52.164;10.530;2024-01-30T03:32:39;14.10;;;8.83;;
10244;SDS011;5167;52.164;10.530;2024-01-30T03:35:04;15.90;;;8.97;;
10244;SDS011;5167;52.164;10.530;2024-01-30T03:37:30;14.53;;;8.00;;
10244;SDS011;5167;52.164;10.530;2024-01-30T03:39:56;18.07;;;9.20;;
10244;SDS011;5167;52.164;10.530;2024-01-30T03:42:21;17.73;;;8.57;;
10244;SDS011;5167;52.164;10.530;2024-01-30T03:44:47;15.53;;;8.60;;
10244;SDS011;5167;52.164;10.530;2024-01-30T03:47:13;14.77;;;8.67;;
10244;SDS011;5167;52.164;10.530;2024-01-30T03:49:38;15.40;;;9.37;;
10244;SDS011;5167;52.164;10.530;2024-01-30T03:52:04;14.90;;;9.13;;
10244;SDS011;5167;52.164;10.530;2024-01-30T03:54:29;13.70;;;8.63;;
10244;SDS011;5167;52.164;10.530;2024-01-30T03:56:55;15.00;;;9.37;;
10244;SDS011;5167;52.164;10.530;2024-01-30T03:59:20;12.53;;;9.30;;
10244;SDS011;5167;52.164;10.530;2024-01-30T04:01:49;15.57;;;9.80;;
10244;SDS011;5167;52.164;10.530;2024-01-30T04:04:16;11.67;;;8.50;;
10244;SDS011;5167;52.164;10.530;2024-01-30T04:06:42;15.83;;;8.93;;
10244;SDS011;5167;52.164;10.530;2024-01-30T04:09:08;15.60;;;9.20;;
10244;SDS011;5167;52.164;10.530;2024-01-30T04:11:33;13.60;;;9.40;;
10244;SDS011;5167;52.164;10.530;2024-01-30T04:13:58;16.63;;;8.70;;
10244;SDS011;5167;52.164;10.530;2024-01-30T04:16:24;13.97;;;8.37;;
10244;SDS011;5167;52.164;10.530;2024-01-30T04:18:50;14.90;;;8.87;;
10244;SDS011;5167;52.164;10.530;2024-01-30T04:21:16;20.10;;;9.53;;
10244;SDS011;5167;52.164;10.530;2024-01-30T04:23:41;14.70;;;9.37;;
10244;SDS011;5167;52.164;10.530;2024-01-30T04:26:07;14.73;;;9.27;;
10244;SDS011;5167;52.164;10.530;2024-01-30T04:28:32;16.37;;;8.63;;
10244;SDS011;5167;52.164;10.530;2024-01-30T04:30:58;12.50;;;8.90;;
10244;SDS011;5167;52.164;10.530;2024-01-30T04:33:23;14.07;;;9.00;;
10244;SDS011;5167;52.164;10.530;2024-01-30T04:35:49;13.13;;;8.70;;
10244;SDS011;5167;52.164;10.530;2024-01-30T04:38:14;14.00;;;8.63;;
10244;SDS011;5167;52.164;10.530;2024-01-30T04:40:40;15.20;;;8.93;;
10244;SDS011;5167;52.164;10.530;2024-01-30T04:43:05;16.20;;;8.60;;
10244;SDS011;5167;52.164;10.530;2024-01-30T04:45:31;14.80;;;8.87;;
10244;SDS011;5167;52.164;10.530;2024-01-30T04:47:56;15.77;;;8.90;;
10244;SDS011;5167;52.164;10.530;2024-01-30T04:50:23;13.87;;;8.80;;
10244;SDS011;5167;52.164;10.530;2024-01-30T04:52:48;16.47;;;8.83;;
10244;SDS011;5167;52.164;10.530;2024-01-30T04:55:14;17.27;;;9.33;;
10244;SDS011;5167;52.164;10.530;2024-01-30T04:57:39;13.53;;;9.33;;
10244;SDS011;5167;52.164;10.530;2024-01-30T05:00:05;18.00;;;9.63;;
10244;SDS011;5167;52.164;10.530;2024-01-30T05:02:31;14.97;;;10.03;;
10244;SDS011;5167;52.164;10.530;2024-01-30T05:04:56;14.97;;;9.47;;
10244;SDS011;5167;52.164;10.530;2024-01-30T05:07:24;15.83;;;9.20;;
10244;SDS011;5167;52.164;10.530;2024-01-30T05:09:50;17.97;;;9.93;;
10244;SDS011;5167;52.164;10.530;2024-01-30T05:12:16;15.03;;;8.73;;
10244;SDS011;5167;52.164;10.530;2024-01-30T05:14:41;16.60;;;8.93;;
10244;SDS011;5167;52.164;10.530;2024-01-30T05:17:07;15.10;;;9.27;;
10244;SDS011;5167;52.164;10.530;2024-01-30T05:19:35;14.27;;;9.33;;
10244;SDS011;5167;52.164;10.530;2024-01-30T05:22:00;17.67;;;9.33;;
10244;SDS011;5167;52.164;10.530;2024-01-30T05:24:26;14.33;;;9.43;;
10244;SDS011;5167;52.164;10.530;2024-01-30T05:26:51;16.47;;;9.67;;
10244;SDS011;5167;52.164;10.530;2024-01-30T05:29:17;13.57;;;8.97;;
10244;SDS011;5167;52.164;10.530;2024-01-30T05:31:42;15.93;;;9.30;;
10244;SDS011;5167;52.164;10.530;2024-01-30T05:34:08;16.60;;;9.47;;
10244;SDS011;5167;52.164;10.530;2024-01-30T05:36:34;13.27;;;9.10;;
10244;SDS011;5167;52.164;10.530;2024-01-30T05:39:00;16.83;;;9.30;;
10244;SDS011;5167;52.164;10.530;2024-01-30T05:41:25;18.33;;;11.23;;
10244;SDS011;5167;52.164;10.530;2024-01-30T05:43:51;15.87;;;9.60;;
10244;SDS011;5167;52.164;10.530;2024-01-30T05:46:16;15.33;;;9.57;;
10244;SDS011;5167;52.164;10.530;2024-01-30T05:48:42;16.47;;;9.80;;
10244;SDS011;5167;52.164;10.530;2024-01-30T05:51:07;17.50;;;9.37;;
10244;SDS011;5167;52.164;10.530;2024-01-30T05:53:33;15.87;;;10.30;;
10244;SDS011;5167;52.164;10.530;2024-01-30T05:55:59;15.83;;;9.83;;
10244;SDS011;5167;52.164;10.530;2024-01-30T05:58:28;15.63;;;9.97;;
10244;SDS011;5167;52.164;10.530;2024-01-30T06:00:54;14.60;;;9.40;;
10244;SDS011;5167;52.164;10.530;2024-01-30T06:03:19;15.97;;;9.30;;
10244;SDS011;5167;52.164;10.530;2024-01-30T06:05:45;13.10;;;9.10;;
10244;SDS011;5167;52.164;10.530;2024-01-30T06:08:10;14.97;;;9.47;;
10244;SDS011;5167;52.164;10.530;2024-01-30T06:10:36;16.67;;;9.43;;
10244;SDS011;5167;52.164;10.530;2024-01-30T06:13:01;18.93;;;9.90;;
10244;SDS011;5167;52.164;10.530;2024-01-30T06:15:27;15.30;;;8.77;;
10244;SDS011;5167;52.164;10.530;2024-01-30T06:17:54;14.10;;;9.20;;
10244;SDS011;5167;52.164;10.530;2024-01-30T06:20:20;14.73;;;8.63;;
10244;SDS011;5167;52.164;10.530;2024-01-30T06:22:45;15.93;;;9.63;;
10244;SDS011;5167;52.164;10.530;2024-01-30T06:25:11;18.07;;;10.20;;
10244;SDS011;5167;52.164;10.530;2024-01-30T06:27:37;14.43;;;9.47;;
10244;SDS011;5167;52.164;10.530;2024-01-30T06:30:02;13.80;;;9.30;;
10244;SDS011;5167;52.164;10.530;2024-01-30T06:32:29;14.30;;;9.37;;
10244;SDS011;5167;52.164;10.530;2024-01-30T06:34:59;14.47;;;9.23;;
10244;SDS011;5167;52.164;10.530;2024-01-30T06:37:25;14.93;;;10.03;;
10244;SDS011;5167;52.164;10.530;2024-01-30T06:39:50;16.23;;;10.03;;
10244;SDS011;5167;52.164;10.530;2024-01-30T06:42:17;15.70;;;10.00;;
10244;SDS011;5167;52.164;10.530;2024-01-30T06:44:43;22.70;;;10.60;;
10244;SDS011;5167;52.164;10.530;2024-01-30T06:47:08;16.63;;;9.60;;
10244;SDS011;5167;52.164;10.530;2024-01-30T06:49:33;16.90;;;9.63;;
10244;SDS011;5167;52.164;10.530;2024-01-30T06:51:59;19.10;;;9.57;;
10244;SDS011;5167;52.164;10.530;2024-01-30T06:54:25;18.67;;;9.43;;
10244;SDS011;5167;52.164;10.530;2024-01-30T06:56:50;14.93;;;9.20;;
10244;SDS011;5167;52.164;10.530;2024-01-30T06:59:16;14.20;;;9.33;;
10244;SDS011;5167;52.164;10.530;2024-01-30T07:01:41;14.37;;;9.13;;
10244;SDS011;5167;52.164;10.530;2024-01-30T07:04:07;18.63;;;9.23;;
10244;SDS011;5167;52.164;10.530;2024-01-30T07:06:32;15.60;;;9.20;;
10244;SDS011;5167;52.164;10.530;2024-01-30T07:08:58;15.00;;;9.63;;
10244;SDS011;5167;52.164;10.530;2024-01-30T07:11:23;13.87;;;8.80;;
10244;SDS011;5167;52.164;10.530;2024-01-30T07:13:52;15.90;;;8.67;;
10244;SDS011;5167;52.164;10.530;2024-01-30T07:16:17;12.70;;;8.60;;
10244;SDS011;5167;52.164;10.530;2024-01-30T07:18:43;16.13;;;9.83;;
10244;SDS011;5167;52.164;10.530;2024-01-30T07:21:09;19.57;;;10.23;;
10244;SDS011;5167;52.164;10.530;2024-01-30T07:23:35;13.00;;;8.73;;
10244;SDS011;5167;52.164;10.530;2024-01-30T07:26:03;16.10;;;9.60;;
10244;SDS011;5167;52.164;10.530;2024-01-30T07:28:29;16.83;;;9.47;;
10244;SDS011;5167;52.164;10.530;2024-01-30T07:30:55;17.27;;;9.47;;
10244;SDS011;5167;52.164;10.530;2024-01-30T07:33:21;13.43;;;9.70;;
10244;SDS011;5167;52.164;10.530;2024-01-30T07:35:46;18.47;;;9.37;;
10244;SDS011;5167;52.164;10.530;2024-01-30T07:38:11;14.07;;;9.13;;
10244;SDS011;5167;52.164;10.530;2024-01-30T07:40:37;14.80;;;9.37;;
10244;SDS011;5167;52.164;10.530;2024-01-30T07:43:03;18.80;;;9.77;;
10244;SDS011;5167;52.164;10.530;2024-01-30T07:45:28;19.67;;;10.00;;
10244;SDS011;5167;52.164;10.530;2024-01-30T07:47:57;18.17;;;9.50;;
10244;SDS011;5167;52.164;10.530;2024-01-30T07:50:24;13.03;;;9.07;;
10244;SDS011;5167;52.164;10.530;2024-01-30T07:52:50;13.00;;;9.37;;
10244;SDS011;5167;52.164;10.530;2024-01-30T07:55:19;17.20;;;9.43;;
10244;SDS011;5167;52.164;10.530;2024-01-30T07:57:51;15.37;;;9.60;;
10244;SDS011;5167;52.164;10.530;2024-01-30T08:00:17;16.80;;;9.33;;
10244;SDS011;5167;52.164;10.530;2024-01-30T08:02:44;17.70;;;9.40;;
10244;SDS011;5167;52.164;10.530;2024-01-30T08:05:10;14.23;;;9.43;;
10244;SDS011;5167;52.164;10.530;2024-01-30T08:07:36;14.87;;;9.80;;
10244;SDS011;5167;52.164;10.530;2024-01-30T08:10:02;18.00;;;10.00;;
10244;SDS011;5167;52.164;10.530;2024-01-30T08:12:27;14.43;;;9.60;;
10244;SDS011;5167;52.164;10.530;2024-01-30T08:14:53;19.13;;;10.70;;
10244;SDS011;5167;52.164;10.530;2024-01-30T08:17:18;13.13;;;9.07;;
10244;SDS011;5167;52.164;10.530;2024-01-30T08:19:44;12.90;;;8.70;;
10244;SDS011;5167;52.164;10.530;2024-01-30T08:22:09;14.27;;;8.90;;
10244;SDS011;5167;52.164;10.530;2024-01-30T08:24:35;15.67;;;9.20;;
10244;SDS011;5167;52.164;10.530;2024-01-30T08:27:00;14.93;;;9.77;;
10244;SDS011;5167;52.164;10.530;2024-01-30T08:29:27;20.07;;;10.03;;
10244;SDS011;5167;52.164;10.530;2024-01-30T08:31:53;16.43;;;9.37;;
10244;SDS011;5167;52.164;10.530;2024-01-30T08:34:20;18.53;;;10.07;;
10244;SDS011;5167;52.164;10.530;2024-01-30T08:36:46;17.40;;;10.03;;
10244;SDS011;5167;52.164;10.530;2024-01-30T08:39:11;21.40;;;11.00;;
10244;SDS011;5167;52.164;10.530;2024-01-30T08:41:37;17.87;;;11.00;;
10244;SDS011;5167;52.164;10.530;2024-01-30T08:44:02;16.63;;;10.50;;
10244;SDS011;5167;52.164;10.530;2024-01-30T08:46:29;21.03;;;11.37;;
10244;SDS011;5167;52.164;10.530;2024-01-30T08:48:55;21.23;;;10.43;;
10244;SDS011;5167;52.164;10.530;2024-01-30T08:51:21;24.33;;;11.03;;
10244;SDS011;5167;52.164;10.530;2024-01-30T08:53:46;25.10;;;11.20;;
10244;SDS011;5167;52.164;10.530;2024-01-30T08:56:12;20.03;;;11.23;;
10244;SDS011;5167;52.164;10.530;2024-01-30T08:58:38;18.67;;;10.50;;
10244;SDS011;5167;52.164;10.530;2024-01-30T09:01:04;16.53;;;11.13;;
10244;SDS011;5167;52.164;10.530;2024-01-30T09:03:30;18.00;;;10.07;;
10244;SDS011;5167;52.164;10.530;2024-01-30T09:05:56;21.37;;;10.13;;
10244;SDS011;5167;52.164;10.530;2024-01-30T09:08:21;17.67;;;10.67;;
10244;SDS011;5167;52.164;10.530;2024-01-30T09:10:47;21.97;;;11.37;;
10244;SDS011;5167;52.164;10.530;2024-01-30T09:13:13;19.27;;;10.53;;
10244;SDS011;5167;52.164;10.530;2024-01-30T09:15:38;16.23;;;9.60;;
10244;SDS011;5167;52.164;10.530;2024-01-30T09:18:04;15.17;;;10.07;;
10244;SDS011;5167;52.164;10.530;2024-01-30T09:20:30;16.03;;;9.37;;
10244;SDS011;5167;52.164;10.530;2024-01-30T09:22:56;17.07;;;9.77;;
10244;SDS011;5167;52.164;10.530;2024-01-30T09:25:21;15.00;;;9.57;;
10244;SDS011;5167;52.164;10.530;2024-01-30T09:27:47;16.80;;;9.90;;
10244;SDS011;5167;52.164;10.530;2024-01-30T09:30:12;18.10;;;8.87;;
10244;SDS011;5167;52.164;10.530;2024-01-30T09:32:39;18.27;;;10.13;;
10244;SDS011;5167;52.164;10.530;2024-01-30T09:35:05;16.10;;;10.00;;
10244;SDS011;5167;52.164;10.530;2024-01-30T09:37:31;19.90;;;9.93;;
10244;SDS011;5167;52.164;10.530;2024-01-30T09:39:56;16.13;;;10.17;;
10244;SDS011;5167;52.164;10.530;2024-01-30T09:42:33;16.40;;;9.07;;
10244;SDS011;5167;52.164;10.530;2024-01-30T09:45:02;13.10;;;9.67;;
10244;SDS011;5167;52.164;10.530;2024-01-30T09:47:40;15.87;;;9.23;;
10244;SDS011;5167;52.164;10.530;2024-01-30T09:50:09;16.33;;;9.13;;
10244;SDS011;5167;52.164;10.530;2024-01-30T09:52:36;15.10;;;10.37;;
10244;SDS011;5167;52.164;10.530;2024-01-30T09:55:02;14.97;;;9.77;;
10244;SDS011;5167;52.164;10.530;2024-01-30T09:57:28;17.53;;;9.07;;
10244;SDS011;5167;52.164;10.530;2024-01-30T09:59:54;14.43;;;9.20;;
10244;SDS011;5167;52.164;10.530;2024-01-30T10:02:19;15.13;;;9.03;;
10244;SDS011;5167;52.164;10.530;2024-01-30T10:04:48;14.73;;;8.97;;
10244;SDS011;5167;52.164;10.530;2024-01-30T10:07:15;19.53;;;9.63;;
10244;SDS011;5167;52.164;10.530;2024-01-30T10:09:41;18.20;;;10.10;;
10244;SDS011;5167;52.164;10.530;2024-01-30T10:12:06;13.60;;;9.83;;
10244;SDS011;5167;52.164;10.530;2024-01-30T10:14:33;16.70;;;10.20;;
10244;SDS011;5167;52.164;10.530;2024-01-30T10:17:03;16.60;;;9.47;;
10244;SDS011;5167;52.164;10.530;2024-01-30T10:19:29;15.17;;;9.70;;
10244;SDS011;5167;52.164;10.530;2024-01-30T10:21:54;15.80;;;8.83;;
10244;SDS011;5167;52.164;10.530;2024-01-30T10:24:23;13.77;;;8.70;;
10244;SDS011;5167;52.164;10.530;2024-01-30T10:26:50;14.10;;;8.70;;
10244;SDS011;5167;52.164;10.530;2024-01-30T10:29:16;15.87;;;9.03;;
10244;SDS011;5167;52.164;10.530;2024-01-30T10:31:42;14.30;;;8.63;;
10244;SDS011;5167;52.164;10.530;2024-01-30T10:34:07;14.90;;;8.97;;
10244;SDS011;5167;52.164;10.530;2024-01-30T10:36:33;13.80;;;9.87;;
10244;SDS011;5167;52.164;10.530;2024-01-30T10:39:05;14.27;;;8.93;;
10244;SDS011;5167;52.164;10.530;2024-01-30T10:41:31;19.03;;;10.37;;
10244;SDS011;5167;52.164;10.530;2024-01-30T10:44:09;17.37;;;9.03;;
10244;SDS011;5167;52.164;10.530;2024-01-30T10:46:35;14.43;;;8.80;;
10244;SDS011;5167;52.164;10.530;2024-01-30T10:49:03;13.13;;;9.50;;
10244;SDS011;5167;52.164;10.530;2024-01-30T10:51:29;15.30;;;10.00;;
10244;SDS011;5167;52.164;10.530;2024-01-30T10:53:56;17.20;;;8.27;;
10244;SDS011;5167;52.164;10.530;2024-01-30T10:56:23;13.80;;;8.23;;
10244;SDS011;5167;52.164;10.530;2024-01-30T10:58:52;17.50;;;8.90;;
10244;SDS011;5167;52.164;10.530;2024-01-30T11:01:19;17.13;;;9.37;;
10244;SDS011;5167;52.164;10.530;2024-01-30T11:03:47;12.23;;;7.50;;
10244;SDS011;5167;52.164;10.530;2024-01-30T11:06:25;14.87;;;7.70;;
10244;SDS011;5167;52.164;10.530;2024-01-30T11:09:04;13.17;;;7.20;;
10244;SDS011;5167;52.164;10.530;2024-01-30T11:14:25;13.93;;;8.60;;
10244;SDS011;5167;52.164;10.530;2024-01-30T11:16:52;13.68;;;8.13;;
10244;SDS011;5167;52.164;10.530;2024-01-30T11:19:24;8.47;;;5.90;;
10244;SDS011;5167;52.164;10.530;2024-01-30T11:21:53;8.93;;;4.35;;
10244;SDS011;5167;52.164;10.530;2024-01-30T11:24:25;9.20;;;4.70;;
10244;SDS011;5167;52.164;10.530;2024-01-30T11:26:57;8.05;;;5.07;;
10244;SDS011;5167;52.164;10.530;2024-01-30T11:29:29;8.02;;;5.47;;
10244;SDS011;5167;52.164;10.530;2024-01-30T11:31:58;6.10;;;4.47;;
10244;SDS011;5167;52.164;10.530;2024-01-30T11:34:24;7.10;;;4.38;;
10244;SDS011;5167;52.164;10.530;2024-01-30T11:36:57;9.68;;;5.13;;
10244;SDS011;5167;52.164;10.530;2024-01-30T11:39:24;7.18;;;5.15;;
10244;SDS011;5167;52.164;10.530;2024-01-30T11:41:51;7.75;;;4.97;;
10244;SDS011;5167;52.164;10.530;2024-01-30T11:44:18;8.25;;;4.30;;
10244;SDS011;5167;52.164;10.530;2024-01-30T11:46:45;10.68;;;4.43;;
10244;SDS011;5167;52.164;10.530;2024-01-30T11:49:12;9.38;;;5.78;;
10244;SDS011;5167;52.164;10.530;2024-01-30T11:51:37;9.20;;;5.68;;
10244;SDS011;5167;52.164;10.530;2024-01-30T11:54:03;9.80;;;4.53;;
10244;SDS011;5167;52.164;10.530;2024-01-30T11:56:28;6.90;;;4.13;;
10244;SDS011;5167;52.164;10.530;2024-01-30T11:58:54;6.32;;;4.43;;
10244;SDS011;5167;52.164;10.530;2024-01-30T12:01:20;4.40;;;3.67;;
10244;SDS011;5167;52.164;10.530;2024-01-30T12:03:51;5.45;;;3.63;;
10244;SDS011;5167;52.164;10.530;2024-01-30T12:06:17;6.55;;;3.90;;
10244;SDS011;5167;52.164;10.530;2024-01-30T12:08:42;5.35;;;3.80;;
10244;SDS011;5167;52.164;10.530;2024-01-30T12:11:09;7.90;;;4.10;;
10244;SDS011;5167;52.164;10.530;2024-01-30T12:13:34;6.10;;;4.03;;
10244;SDS011;5167;52.164;10.530;2024-01-30T12:16:00;8.25;;;4.18;;
10244;SDS011;5167;52.164;10.530;2024-01-30T12:18:26;6.10;;;4.25;;
10244;SDS011;5167;52.164;10.530;2024-01-30T12:20:58;9.02;;;3.72;;
10244;SDS011;5167;52.164;10.530;2024-01-30T12:23:24;4.63;;;3.90;;
10244;SDS011;5167;52.164;10.530;2024-01-30T12:25:51;5.28;;;3.83;;
10244;SDS011;5167;52.164;10.530;2024-01-30T12:28:17;7.85;;;3.80;;
10244;SDS011;5167;52.164;10.530;2024-01-30T12:30:43;6.28;;;3.95;;
10244;SDS011;5167;52.164;10.530;2024-01-30T12:33:08;7.60;;;3.92;;
10244;SDS011;5167;52.164;10.530;2024-01-30T12:35:35;4.57;;;3.80;;
10244;SDS011;5167;52.164;10.530;2024-01-30T12:38:00;9.60;;;4.07;;
10244;SDS011;5167;52.164;10.530;2024-01-30T12:40:27;9.73;;;5.40;;
10244;SDS011;5167;52.164;10.530;2024-01-30T12:42:53;7.03;;;4.10;;
10244;SDS011;5167;52.164;10.530;2024-01-30T12:45:19;6.70;;;4.20;;
10244;SDS011;5167;52.164;10.530;2024-01-30T12:47:46;5.88;;;3.83;;
10244;SDS011;5167;52.164;10.530;2024-01-30T12:50:12;5.35;;;3.95;;
10244;SDS011;5167;52.164;10.530;2024-01-30T12:52:40;6.63;;;4.38;;
10244;SDS011;5167;52.164;10.530;2024-01-30T12:55:06;7.93;;;4.40;;
10244;SDS011;5167;52.164;10.530;2024-01-30T12:57:32;8.82;;;4.30;;
10244;SDS011;5167;52.164;10.530;2024-01-30T12:59:57;9.30;;;4.65;;
10244;SDS011;5167;52.164;10.530;2024-01-30T13:02:23;6.57;;;4.22;;
10244;SDS011;5167;52.164;10.530;2024-01-30T13:04:48;6.70;;;4.70;;
10244;SDS011;5167;52.164;10.530;2024-01-30T13:07:14;6.88;;;4.45;;
10244;SDS011;5167;52.164;10.530;2024-01-30T13:09:40;6.00;;;4.10;;
10244;SDS011;5167;52.164;10.530;2024-01-30T13:12:05;6.97;;;3.80;;
10244;SDS011;5167;52.164;10.530;2024-01-30T13:14:31;5.60;;;3.97;;
10244;SDS011;5167;52.164;10.530;2024-01-30T13:16:57;5.38;;;3.70;;
10244;SDS011;5167;52.164;10.530;2024-01-30T13:19:23;5.80;;;4.18;;
10244;SDS011;5167;52.164;10.530;2024-01-30T13:21:48;10.75;;;4.35;;
10244;SDS011;5167;52.164;10.530;2024-01-30T13:24:14;7.57;;;4.00;;
10244;SDS011;5167;52.164;10.530;2024-01-30T13:26:39;6.93;;;4.00;;
10244;SDS011;5167;52.164;10.530;2024-01-30T13:29:07;6.93;;;4.55;;
10244;SDS011;5167;52.164;10.530;2024-01-30T13:31:33;8.88;;;4.93;;
10244;SDS011;5167;52.164;10.530;2024-01-30T13:33:59;6.45;;;4.10;;
10244;SDS011;5167;52.164;10.530;2024-01-30T13:36:25;7.32;;;4.60;;
10244;SDS011;5167;52.164;10.530;2024-01-30T13:38:50;8.05;;;4.35;;
10244;SDS011;5167;52.164;10.530;2024-01-30T13:41:16;5.28;;;4.13;;
10244;SDS011;5167;52.164;10.530;2024-01-30T13:43:43;7.13;;;4.97;;
10244;SDS011;5167;52.164;10.530;2024-01-30T13:46:09;5.57;;;4.43;;
10244;SDS011;5167;52.164;10.530;2024-01-30T13:48:35;10.88;;;4.22;;
10244;SDS011;5167;52.164;10.530;2024-01-30T13:51:00;6.60;;;4.35;;
10244;SDS011;5167;52.164;10.530;2024-01-30T13:53:26;6.82;;;4.28;;
10244;SDS011;5167;52.164;10.530;2024-01-30T13:55:51;8.52;;;4.50;;
10244;SDS011;5167;52.164;10.530;2024-01-30T13:58:17;7.93;;;4.07;;
10244;SDS011;5167;52.164;10.530;2024-01-30T14:00:42;8.90;;;5.63;;
10244;SDS011;5167;52.164;10.530;2024-01-30T14:03:08;6.90;;;4.85;;
10244;SDS011;5167;52.164;10.530;2024-01-30T14:05:33;16.25;;;8.52;;
10244;SDS011;5167;52.164;10.530;2024-01-30T14:08:00;8.40;;;4.28;;
10244;SDS011;5167;52.164;10.530;2024-01-30T14:10:25;8.73;;;5.05;;
10244;SDS011;5167;52.164;10.530;2024-01-30T14:12:51;9.40;;;4.38;;
10244;SDS011;5167;52.164;10.530;2024-01-30T14:15:16;8.65;;;5.00;;
10244;SDS011;5167;52.164;10.530;2024-01-30T14:17:45;8.98;;;4.65;;
10244;SDS011;5167;52.164;10.530;2024-01-30T14:20:13;9.65;;;5.05;;
10244;SDS011;5167;52.164;10.530;2024-01-30T14:22:39;8.25;;;5.03;;
10244;SDS011;5167;52.164;10.530;2024-01-30T14:25:04;7.90;;;4.22;;
10244;SDS011;5167;52.164;10.530;2024-01-30T14:27:30;6.60;;;5.13;;
10244;SDS011;5167;52.164;10.530;2024-01-30T14:29:57;11.13;;;4.75;;
10244;SDS011;5167;52.164;10.530;2024-01-30T14:32:23;13.85;;;8.90;;